createdAt,value
2023-11-16T00:01:39.144Z,88.79
2023-11-16T00:04:11.460Z,89.04
2023-11-16T00:06:40.723Z,89.75
2023-11-16T00:09:08.397Z,89.07
2023-11-16T00:11:35.528Z,88.81
2023-11-16T00:14:02.751Z,87.89
2023-11-16T00:16:29.921Z,88.10
2023-11-16T00:18:56.994Z,87.75
2023-11-16T00:21:24.687Z,88.44
2023-11-16T00:23:51.839Z,88.41
2023-11-16T00:26:21.805Z,89.46
2023-11-16T00:28:56.127Z,88.27
2023-11-16T00:31:24.697Z,88.12
2023-11-16T00:33:52.198Z,88.10
2023-11-16T00:36:19.779Z,87.91
2023-11-16T00:38:47.165Z,88.11
2023-11-16T00:41:16.591Z,87.08
2023-11-16T00:43:45.192Z,86.80
2023-11-16T00:46:17.915Z,86.85
2023-11-16T00:48:45.843Z,86.88
2023-11-16T00:51:13.344Z,86.82
2023-11-16T00:53:44.381Z,87.04
2023-11-16T00:56:13.079Z,87.72
2023-11-16T00:58:40.928Z,87.22
2023-11-16T01:01:08.226Z,87.56
2023-11-16T01:03:35.419Z,88.66
2023-11-16T01:06:03.710Z,88.86
2023-11-16T01:08:36.138Z,88.81
2023-11-16T01:11:09.663Z,88.46
2023-11-16T01:13:40.027Z,88.68
2023-11-16T01:16:16.480Z,89.31
2023-11-16T01:18:53.211Z,88.03
2023-11-16T01:21:21.294Z,87.63
2023-11-16T01:23:49.739Z,87.48
2023-11-16T01:26:17.830Z,86.63
2023-11-16T01:28:51.384Z,87.03
2023-11-16T01:31:20.947Z,87.29
2023-11-16T01:33:48.721Z,87.96
2023-11-16T01:36:16.299Z,87.45
2023-11-16T01:38:43.946Z,86.67
2023-11-16T01:41:11.362Z,86.69
2023-11-16T01:43:38.530Z,86.29
2023-11-16T01:46:10.574Z,86.74
2023-11-16T01:48:41.195Z,86.04
2023-11-16T01:51:09.857Z,85.13
2023-11-16T01:53:40.908Z,85.57
2023-11-16T01:56:10.352Z,84.80
2023-11-16T01:58:38.885Z,84.99
2023-11-16T02:01:07.351Z,85.26
2023-11-16T02:03:34.598Z,84.81
2023-11-16T02:06:05.239Z,85.38
2023-11-16T02:08:32.861Z,84.67
2023-11-16T02:11:00.515Z,84.34
2023-11-16T02:13:27.934Z,84.20
2023-11-16T02:15:57.612Z,84.04
2023-11-16T02:18:27.131Z,83.02
2023-11-16T02:20:56.437Z,82.55
2023-11-16T02:23:24.860Z,82.78
2023-11-16T02:25:54.250Z,83.07
2023-11-16T02:28:22.305Z,82.89
2023-11-16T02:30:50.434Z,83.91
2023-11-16T02:33:18.605Z,83.38
2023-11-16T02:35:45.720Z,84.73
2023-11-16T02:38:14.220Z,84.01
2023-11-16T02:40:41.785Z,84.09
2023-11-16T02:43:08.824Z,84.77
2023-11-16T02:45:36.456Z,84.28
2023-11-16T02:48:06.484Z,83.68
2023-11-16T02:50:34.122Z,84.01
2023-11-16T02:53:01.316Z,84.19
2023-11-16T02:55:28.419Z,83.92
2023-11-16T02:57:56.924Z,85.80
2023-11-16T03:00:25.688Z,86.13
2023-11-16T03:02:53.079Z,86.38
2023-11-16T03:05:22.676Z,85.76
2023-11-16T03:07:52.413Z,85.69
2023-11-16T03:10:21.492Z,86.10
2023-11-16T03:12:50.742Z,85.99
2023-11-16T03:15:18.974Z,85.84
2023-11-16T03:17:46.618Z,86.18
2023-11-16T03:20:18.955Z,86.24
2023-11-16T03:22:46.194Z,85.55
2023-11-16T03:25:13.391Z,86.11
2023-11-16T03:27:43.560Z,85.39
2023-11-16T03:30:11.342Z,85.48
2023-11-16T03:32:38.485Z,85.29
2023-11-16T03:35:06.499Z,85.55
2023-11-16T03:37:34.220Z,85.52
2023-11-16T03:40:03.476Z,85.05
2023-11-16T03:42:31.143Z,84.49
2023-11-16T03:44:58.320Z,84.68
2023-11-16T03:47:25.490Z,84.33
2023-11-16T03:49:52.787Z,84.39
2023-11-16T03:52:19.853Z,83.90
2023-11-16T03:54:47.007Z,84.07
2023-11-16T03:57:15.303Z,84.17
2023-11-16T03:59:42.830Z,84.40
2023-11-16T04:02:09.849Z,84.51
2023-11-16T04:04:37.162Z,84.09
2023-11-16T04:07:04.824Z,84.54
2023-11-16T04:09:31.963Z,84.60
2023-11-16T04:11:59.173Z,84.89
2023-11-16T04:14:26.434Z,84.41
2023-11-16T04:16:54.310Z,84.48
2023-11-16T04:19:22.781Z,84.25
2023-11-16T04:21:51.968Z,83.65
2023-11-16T04:24:21.205Z,85.75
2023-11-16T04:26:49.847Z,84.89
2023-11-16T04:29:17.735Z,84.73
2023-11-16T04:31:46.891Z,84.79
2023-11-16T04:34:14.103Z,84.51
2023-11-16T04:36:43.324Z,85.59
2023-11-16T04:39:13.629Z,84.16
2023-11-16T04:41:46.733Z,83.63
2023-11-16T04:44:14.038Z,83.89
2023-11-16T04:46:47.622Z,84.22
2023-11-16T04:49:15.040Z,84.58
2023-11-16T04:51:42.430Z,84.27
2023-11-16T04:54:09.954Z,83.07
2023-11-16T04:56:37.827Z,83.24
2023-11-16T04:59:07.763Z,82.91
2023-11-16T05:01:35.389Z,82.82
2023-11-16T05:04:03.855Z,84.22
2023-11-16T05:06:31.223Z,82.39
2023-11-16T05:08:58.703Z,82.05
2023-11-16T05:11:26.018Z,81.51
2023-11-16T05:13:55.049Z,81.76
2023-11-16T05:16:23.764Z,82.37
2023-11-16T05:18:51.202Z,83.08
2023-11-16T05:21:18.732Z,82.02
2023-11-16T05:23:46.400Z,82.34
2023-11-16T05:26:13.671Z,82.44
2023-11-16T05:28:40.973Z,82.01
2023-11-16T05:31:10.040Z,81.69
2023-11-16T05:33:37.330Z,82.11
2023-11-16T05:36:04.784Z,82.44
2023-11-16T05:38:32.059Z,81.50
2023-11-16T05:40:59.884Z,81.77
2023-11-16T05:43:27.115Z,81.84
2023-11-16T05:45:54.542Z,82.72
2023-11-16T05:48:22.062Z,82.12
2023-11-16T05:50:49.917Z,82.10
2023-11-16T05:53:17.142Z,81.18
2023-11-16T05:55:44.755Z,80.51
2023-11-16T05:58:12.312Z,80.64
2023-11-16T06:00:39.754Z,80.16
2023-11-16T06:03:08.161Z,80.43
2023-11-16T06:05:37.100Z,79.54
2023-11-16T06:08:05.372Z,79.73
2023-11-16T06:10:32.695Z,78.66
2023-11-16T06:13:00.986Z,77.46
2023-11-16T06:15:32.086Z,78.84
2023-11-16T06:18:02.312Z,78.04
2023-11-16T06:20:30.969Z,78.40
2023-11-16T06:22:58.353Z,78.12
2023-11-16T06:25:25.446Z,76.66
2023-11-16T06:27:52.720Z,76.37
2023-11-16T06:30:20.240Z,76.30
2023-11-16T06:32:49.023Z,76.45
2023-11-16T06:35:16.478Z,75.55
2023-11-16T06:37:44.738Z,75.88
2023-11-16T06:40:13.297Z,75.57
2023-11-16T06:42:41.323Z,75.57
2023-11-16T06:45:09.707Z,74.54
2023-11-16T06:47:37.204Z,74.41
2023-11-16T06:50:05.391Z,75.90
2023-11-16T06:52:34.338Z,75.38
2023-11-16T06:55:02.449Z,73.49
2023-11-16T06:57:31.243Z,73.54
2023-11-16T06:59:59.025Z,73.78
2023-11-16T07:02:26.510Z,73.32
2023-11-16T07:04:53.863Z,73.03
2023-11-16T07:07:21.150Z,73.09
2023-11-16T07:09:50.846Z,74.52
2023-11-16T07:12:22.335Z,74.59
2023-11-16T07:14:53.955Z,73.30
2023-11-16T07:17:22.927Z,73.12
2023-11-16T07:19:50.479Z,73.56
2023-11-16T07:22:20.058Z,70.88
2023-11-16T07:24:48.974Z,70.79
2023-11-16T07:27:16.563Z,69.65
2023-11-16T07:29:46.500Z,71.52
2023-11-16T07:32:14.581Z,70.07
2023-11-16T07:34:42.951Z,71.44
2023-11-16T07:37:13.064Z,69.76
2023-11-16T07:39:42.083Z,69.04
2023-11-16T07:42:11.558Z,69.01
2023-11-16T07:44:39.136Z,69.35
2023-11-16T07:47:10.131Z,69.53
2023-11-16T07:49:39.839Z,69.68
2023-11-16T07:52:08.052Z,70.54
2023-11-16T07:54:36.421Z,69.16
2023-11-16T07:57:03.602Z,68.50
2023-11-16T07:59:36.054Z,68.27
2023-11-16T08:02:03.423Z,69.86
2023-11-16T08:04:33.285Z,70.01
2023-11-16T08:07:01.960Z,68.22
2023-11-16T08:09:30.895Z,67.79
2023-11-16T08:12:00.547Z,69.29
2023-11-16T08:14:27.994Z,69.10
2023-11-16T08:16:56.995Z,69.89
2023-11-16T08:19:26.668Z,67.16
2023-11-16T08:21:58.247Z,66.00
2023-11-16T08:24:29.761Z,65.50
2023-11-16T08:27:00.307Z,64.91
2023-11-16T08:29:27.630Z,66.81
2023-11-16T08:31:57.726Z,66.79
2023-11-16T08:34:29.381Z,65.96
2023-11-16T08:36:57.429Z,66.74
2023-11-16T08:39:25.157Z,65.92
2023-11-16T08:41:54.378Z,65.92
2023-11-16T08:44:23.849Z,63.71
2023-11-16T08:46:57.458Z,64.94
2023-11-16T08:49:25.013Z,62.87
2023-11-16T08:52:00.854Z,63.50
2023-11-16T08:54:30.097Z,63.84
2023-11-16T08:56:59.000Z,65.04
2023-11-16T08:59:27.490Z,62.33
2023-11-16T09:01:56.348Z,62.80
2023-11-16T09:04:25.209Z,61.35
2023-11-16T09:06:52.912Z,60.78
2023-11-16T09:09:37.293Z,60.07
2023-11-16T09:12:09.093Z,59.44
2023-11-16T09:14:36.330Z,59.18
2023-11-16T09:17:12.718Z,59.16
2023-11-16T09:19:42.018Z,58.91
2023-11-16T09:22:10.661Z,59.56
2023-11-16T09:24:40.970Z,60.00
2023-11-16T09:27:08.314Z,58.38
2023-11-16T09:29:40.889Z,58.19
2023-11-16T09:32:12.426Z,58.01
2023-11-16T09:34:41.359Z,59.58
2023-11-16T09:37:09.630Z,59.15
2023-11-16T09:39:39.412Z,58.67
2023-11-16T09:42:09.820Z,59.93
2023-11-16T09:44:45.731Z,60.38
2023-11-16T09:47:27.615Z,60.34
2023-11-16T09:49:57.444Z,59.78
2023-11-16T09:52:27.463Z,60.06
2023-11-16T09:55:01.678Z,61.93
2023-11-16T09:57:35.842Z,62.79
2023-11-16T10:00:15.188Z,61.88
2023-11-16T10:02:44.832Z,62.42
2023-11-16T10:05:23.673Z,60.81
2023-11-16T10:07:55.021Z,60.04
2023-11-16T10:10:22.400Z,60.11
2023-11-16T10:12:51.623Z,59.18
2023-11-16T10:15:19.154Z,60.24
2023-11-16T10:17:46.716Z,60.19
2023-11-16T10:20:25.057Z,60.16
2023-11-16T10:22:55.299Z,61.72
2023-11-16T10:25:24.630Z,62.07
2023-11-16T10:27:52.011Z,59.99
2023-11-16T10:30:19.768Z,59.24
2023-11-16T10:32:50.888Z,59.40
2023-11-16T10:35:24.884Z,57.87
2023-11-16T10:37:53.048Z,57.40
2023-11-16T10:40:20.326Z,58.24
2023-11-16T10:42:47.592Z,57.30
2023-11-16T10:45:16.468Z,56.68
2023-11-16T10:47:44.840Z,56.78
2023-11-16T10:50:17.009Z,56.50
2023-11-16T10:52:46.632Z,58.13
2023-11-16T10:55:19.196Z,56.00
2023-11-16T10:57:49.563Z,56.59
2023-11-16T11:00:18.519Z,56.35
2023-11-16T11:02:50.807Z,56.56
2023-11-16T11:05:21.328Z,55.78
2023-11-16T11:07:55.487Z,55.41
2023-11-16T11:10:28.448Z,56.42
2023-11-16T11:13:01.583Z,55.21
2023-11-16T11:15:32.957Z,54.91
2023-11-16T11:18:01.852Z,55.32
2023-11-16T11:20:37.955Z,54.67
2023-11-16T11:23:19.401Z,53.63
2023-11-16T11:25:47.313Z,54.88
2023-11-16T11:28:16.053Z,54.06
2023-11-16T11:30:55.639Z,55.21
2023-11-16T11:33:29.332Z,53.98
2023-11-16T11:35:57.112Z,54.32
2023-11-16T11:38:29.123Z,53.76
2023-11-16T11:40:58.052Z,54.55
2023-11-16T11:43:29.054Z,54.58
2023-11-16T11:45:59.162Z,53.39
2023-11-16T11:48:27.723Z,52.09
2023-11-16T11:50:59.144Z,53.24
2023-11-16T11:53:28.940Z,52.98
2023-11-16T11:55:58.268Z,53.47
2023-11-16T11:58:28.556Z,54.09
2023-11-16T12:00:57.934Z,54.65
2023-11-16T12:03:25.366Z,54.81
2023-11-16T12:06:01.252Z,54.89
2023-11-16T12:08:49.620Z,54.98
2023-11-16T12:11:22.110Z,53.90
2023-11-16T12:13:52.774Z,55.29
2023-11-16T12:16:20.188Z,56.11
2023-11-16T12:18:49.406Z,56.02
2023-11-16T12:21:16.726Z,56.54
2023-11-16T12:23:45.792Z,56.24
2023-11-16T12:26:14.192Z,56.00
2023-11-16T12:28:41.752Z,55.48
2023-11-16T12:31:09.675Z,55.17
2023-11-16T12:33:36.978Z,55.37
2023-11-16T12:36:05.627Z,55.01
2023-11-16T12:38:32.895Z,55.96
2023-11-16T12:40:59.893Z,55.79
2023-11-16T12:43:27.013Z,54.12
2023-11-16T12:45:56.098Z,54.60
2023-11-16T12:48:23.321Z,55.22
2023-11-16T12:50:50.925Z,56.11
2023-11-16T12:53:18.522Z,57.42
2023-11-16T12:55:45.948Z,57.15
2023-11-16T12:58:13.829Z,56.81
2023-11-16T13:00:44.215Z,57.93
2023-11-16T13:03:11.653Z,58.22
2023-11-16T13:05:42.568Z,56.95
2023-11-16T13:08:09.859Z,57.56
2023-11-16T13:10:37.231Z,56.68
2023-11-16T13:13:04.584Z,57.13
2023-11-16T13:15:31.739Z,56.77
2023-11-16T13:17:58.987Z,55.91
2023-11-16T13:20:26.261Z,56.09
2023-11-16T13:22:53.455Z,56.51
2023-11-16T13:25:21.608Z,57.47
2023-11-16T13:27:49.857Z,56.57
2023-11-16T13:30:17.462Z,56.60
2023-11-16T13:32:45.256Z,57.76
2023-11-16T13:35:14.900Z,57.61
2023-11-16T13:37:43.932Z,58.23
2023-11-16T13:40:13.739Z,57.62
2023-11-16T13:42:42.713Z,58.56
2023-11-16T13:45:13.853Z,58.48
2023-11-16T13:47:42.490Z,56.77
2023-11-16T13:50:12.587Z,57.75
2023-11-16T13:52:41.035Z,57.14
2023-11-16T13:55:09.689Z,58.11
2023-11-16T13:57:36.834Z,57.63
2023-11-16T14:00:04.805Z,58.13
2023-11-16T14:02:33.865Z,57.92
2023-11-16T14:05:02.653Z,57.94
2023-11-16T14:07:30.753Z,58.39
2023-11-16T14:10:06.454Z,58.93
2023-11-16T14:12:40.665Z,59.79
2023-11-16T14:15:12.006Z,59.82
2023-11-16T14:17:40.246Z,59.92
2023-11-16T14:20:08.618Z,59.75
2023-11-16T14:22:36.953Z,59.07
2023-11-16T14:25:04.967Z,59.63
2023-11-16T14:27:32.186Z,59.78
2023-11-16T14:29:59.372Z,59.99
2023-11-16T14:32:29.656Z,59.99
2023-11-16T14:35:13.906Z,60.50
2023-11-16T14:37:50.208Z,60.48
2023-11-16T14:40:17.778Z,60.40
2023-11-16T14:42:46.595Z,60.88
2023-11-16T14:45:13.889Z,61.70
2023-11-16T14:47:41.389Z,60.46
2023-11-16T14:50:10.708Z,60.60
2023-11-16T14:52:38.693Z,61.21
2023-11-16T14:55:08.693Z,61.47
2023-11-16T14:57:39.457Z,61.82
2023-11-16T15:00:10.828Z,63.15
2023-11-16T15:02:40.677Z,64.16
2023-11-16T15:05:10.798Z,62.69
2023-11-16T15:07:40.051Z,63.23
2023-11-16T15:10:12.216Z,63.51
2023-11-16T15:12:40.962Z,63.74
2023-11-16T15:15:11.633Z,64.93
2023-11-16T15:17:41.696Z,65.53
2023-11-16T15:20:21.212Z,66.49
2023-11-16T15:22:54.562Z,67.44
2023-11-16T15:25:22.099Z,67.26
2023-11-16T15:27:51.206Z,66.44
2023-11-16T15:30:18.619Z,66.85
2023-11-16T15:32:46.044Z,67.35
2023-11-16T15:35:13.640Z,67.72
2023-11-16T15:37:40.812Z,66.85
2023-11-16T15:40:09.561Z,68.17
2023-11-16T15:42:36.848Z,68.88
2023-11-16T15:45:04.712Z,69.04
2023-11-16T15:47:35.655Z,68.87
2023-11-16T15:50:02.949Z,68.65
2023-11-16T15:52:31.609Z,70.26
2023-11-16T15:55:17.497Z,69.45
2023-11-16T15:57:46.032Z,69.66
2023-11-16T16:00:20.616Z,69.54
2023-11-16T16:02:53.557Z,69.84
2023-11-16T16:05:21.908Z,69.65
2023-11-16T16:07:49.084Z,68.27
2023-11-16T16:10:16.407Z,68.68
2023-11-16T16:12:43.675Z,68.43
2023-11-16T16:15:13.081Z,71.32
2023-11-16T16:17:40.776Z,68.87
2023-11-16T16:20:09.729Z,69.21
2023-11-16T16:22:36.918Z,69.78
2023-11-16T16:25:04.869Z,68.73
2023-11-16T16:27:32.125Z,68.37
2023-11-16T16:29:59.808Z,67.28
2023-11-16T16:32:30.584Z,68.03
2023-11-16T16:35:00.298Z,67.47
2023-11-16T16:37:27.494Z,69.13
2023-11-16T16:39:54.792Z,68.35
2023-11-16T16:42:22.010Z,68.54
2023-11-16T16:44:49.166Z,68.51
2023-11-16T16:47:18.876Z,69.16
2023-11-16T16:49:46.111Z,69.01
2023-11-16T16:52:13.244Z,70.04
2023-11-16T16:54:40.565Z,69.16
2023-11-16T16:57:08.533Z,70.24
2023-11-16T16:59:35.837Z,69.16
2023-11-16T17:02:04.752Z,70.98
2023-11-16T17:04:32.279Z,70.58
2023-11-16T17:06:59.448Z,70.65
2023-11-16T17:09:26.905Z,71.88
2023-11-16T17:11:54.287Z,73.07
2023-11-16T17:14:21.480Z,73.47
2023-11-16T17:16:48.731Z,73.84
2023-11-16T17:19:15.928Z,74.10
2023-11-16T17:21:44.959Z,73.96
2023-11-16T17:24:14.106Z,74.31
2023-11-16T17:26:41.512Z,75.28
2023-11-16T17:29:08.783Z,75.15
2023-11-16T17:31:38.920Z,75.58
2023-11-16T17:34:12.477Z,76.36
2023-11-16T17:36:39.794Z,76.67
2023-11-16T17:39:09.697Z,77.05
2023-11-16T17:41:36.926Z,77.25
2023-11-16T17:44:05.039Z,77.90
2023-11-16T17:46:37.805Z,77.74
2023-11-16T17:49:08.893Z,78.53
2023-11-16T17:51:39.617Z,79.32
2023-11-16T17:54:08.019Z,79.90
2023-11-16T17:56:38.126Z,80.26
2023-11-16T17:59:05.657Z,80.37
2023-11-16T18:01:33.063Z,81.71
2023-11-16T18:04:00.507Z,82.25
2023-11-16T18:06:27.680Z,82.32
2023-11-16T18:08:54.993Z,81.91
2023-11-16T18:11:22.559Z,81.88
2023-11-16T18:13:49.740Z,82.24
2023-11-16T18:16:23.488Z,82.43
2023-11-16T18:18:54.230Z,82.85
2023-11-16T18:21:21.365Z,82.75
2023-11-16T18:23:48.449Z,82.93
2023-11-16T18:26:16.423Z,84.38
2023-11-16T18:28:43.801Z,85.06
2023-11-16T18:31:13.046Z,85.34
2023-11-16T18:33:40.144Z,85.55
2023-11-16T18:36:08.511Z,86.40
2023-11-16T18:38:35.977Z,86.72
2023-11-16T18:41:03.483Z,86.34
2023-11-16T18:43:34.674Z,86.54
2023-11-16T18:46:02.016Z,86.69
2023-11-16T18:48:29.131Z,87.56
2023-11-16T18:50:56.306Z,87.90
2023-11-16T18:53:23.449Z,87.81
2023-11-16T18:55:50.630Z,87.98
2023-11-16T18:58:17.990Z,87.87
2023-11-16T19:00:45.082Z,88.17
2023-11-16T19:03:15.509Z,87.77
2023-11-16T19:05:44.489Z,88.11
2023-11-16T19:08:14.588Z,88.37
2023-11-16T19:10:42.875Z,88.50
2023-11-16T19:13:11.624Z,88.55
2023-11-16T19:15:39.943Z,87.74
2023-11-16T19:18:07.803Z,87.27
2023-11-16T19:20:37.960Z,87.09
2023-11-16T19:23:09.955Z,87.83
2023-11-16T19:25:38.760Z,87.76
2023-11-16T19:28:08.136Z,87.50
2023-11-16T19:30:35.918Z,87.75
2023-11-16T19:33:05.589Z,88.52
2023-11-16T19:35:33.994Z,88.99
2023-11-16T19:38:01.281Z,89.87
2023-11-16T19:40:34.655Z,89.33
2023-11-16T19:43:08.032Z,89.27
2023-11-16T19:45:39.605Z,89.79
2023-11-16T19:48:08.374Z,89.65
2023-11-16T19:50:39.062Z,89.80
2023-11-16T19:53:08.021Z,89.53
2023-11-16T19:55:39.455Z,89.53
2023-11-16T19:58:08.622Z,90.42
2023-11-16T20:00:39.257Z,89.22
2023-11-16T20:03:08.180Z,89.89
2023-11-16T20:05:36.227Z,89.67
2023-11-16T20:08:03.512Z,89.90
2023-11-16T20:10:32.224Z,88.68
2023-11-16T20:13:00.047Z,88.49
2023-11-16T20:15:28.490Z,89.80
2023-11-16T20:17:55.905Z,89.45
2023-11-16T20:20:27.330Z,89.78
2023-11-16T20:22:56.589Z,88.71
2023-11-16T20:25:23.789Z,87.98
2023-11-16T20:27:51.641Z,87.49
2023-11-16T20:30:19.599Z,88.44
2023-11-16T20:32:52.320Z,87.82
2023-11-16T20:35:20.207Z,87.92
2023-11-16T20:37:48.398Z,89.37
2023-11-16T20:40:18.988Z,90.13
2023-11-16T20:42:50.989Z,89.49
2023-11-16T20:45:18.517Z,88.99
2023-11-16T20:47:48.198Z,88.76
2023-11-16T20:50:16.757Z,88.11
2023-11-16T20:52:44.250Z,88.13
2023-11-16T20:55:12.032Z,88.46
2023-11-16T20:57:40.295Z,88.96
2023-11-16T21:00:21.324Z,89.66
2023-11-16T21:02:49.797Z,89.72
2023-11-16T21:05:21.542Z,89.51
2023-11-16T21:07:50.812Z,88.89
2023-11-16T21:10:18.374Z,87.88
2023-11-16T21:12:48.652Z,87.46
2023-11-16T21:15:16.210Z,87.70
2023-11-16T21:17:43.705Z,88.15
2023-11-16T21:20:13.669Z,87.92
2023-11-16T21:22:42.743Z,87.90
2023-11-16T21:25:11.777Z,88.48
2023-11-16T21:27:39.664Z,88.01
2023-11-16T21:30:10.946Z,87.36
2023-11-16T21:32:39.530Z,86.94
2023-11-16T21:35:11.267Z,87.36
2023-11-16T21:37:38.401Z,87.30
2023-11-16T21:40:09.902Z,88.03
2023-11-16T21:42:38.032Z,87.96
2023-11-16T21:45:07.001Z,87.69
2023-11-16T21:47:40.010Z,87.74
2023-11-16T21:50:10.692Z,86.79
2023-11-16T21:52:39.205Z,86.81
2023-11-16T21:55:07.758Z,86.74
2023-11-16T21:57:35.466Z,86.41
2023-11-16T22:00:03.189Z,87.21
2023-11-16T22:02:37.144Z,88.87
2023-11-16T22:05:13.112Z,88.31
2023-11-16T22:07:47.419Z,88.39
2023-11-16T22:10:18.160Z,88.19
2023-11-16T22:12:49.495Z,88.71
2023-11-16T22:15:18.024Z,87.38
2023-11-16T22:17:47.331Z,86.86
2023-11-16T22:20:16.662Z,87.42
2023-11-16T22:22:46.667Z,85.31
2023-11-16T22:25:14.640Z,86.43
2023-11-16T22:27:44.034Z,86.43
2023-11-16T22:30:13.037Z,86.34
2023-11-16T22:32:43.448Z,86.98
2023-11-16T22:35:14.738Z,86.84
2023-11-16T22:37:42.948Z,86.16
2023-11-16T22:40:11.260Z,86.47
2023-11-16T22:42:42.285Z,86.38
2023-11-16T22:45:10.332Z,86.11
2023-11-16T22:47:38.731Z,85.98
2023-11-16T22:50:10.286Z,87.31
2023-11-16T22:52:39.957Z,87.31
2023-11-16T22:55:11.725Z,87.37
2023-11-16T22:57:40.312Z,87.44
2023-11-16T23:00:21.857Z,86.75
2023-11-16T23:02:49.375Z,86.91
2023-11-16T23:05:16.938Z,88.06
2023-11-16T23:07:45.762Z,88.40
2023-11-16T23:10:17.179Z,88.26
2023-11-16T23:12:51.228Z,87.56
2023-11-16T23:15:22.526Z,88.35
2023-11-16T23:17:55.754Z,87.09
2023-11-16T23:20:25.670Z,87.57
2023-11-16T23:22:52.829Z,88.88
2023-11-16T23:25:21.789Z,88.61
2023-11-16T23:27:49.914Z,89.54
2023-11-16T23:30:17.343Z,89.29
2023-11-16T23:32:44.485Z,88.83
2023-11-16T23:35:14.489Z,88.28
2023-11-16T23:37:41.797Z,88.03
2023-11-16T23:40:13.863Z,89.62
2023-11-16T23:42:41.805Z,88.61
2023-11-16T23:45:09.543Z,88.21
2023-11-16T23:47:36.720Z,88.14
2023-11-16T23:50:04.869Z,88.27
2023-11-16T23:52:33.105Z,88.87
2023-11-16T23:55:00.794Z,89.14
2023-11-16T23:57:28.870Z,89.86
2023-11-16T23:59:57.015Z,91.21
